Agargaon, India

1:52 PM IST on January 20, 2017 (GMT +0530)
Nagpur | | Change Station

Elev 1017 ft 21.10 °N, 79.05 °E | Updated 22 minutes ago

Partly Cloudy
Partly Cloudy
84 °F
Feels Like 83 °F
N
6
Wind Variable Wind from ESE

Today
High -- | Low -- °F
--% Chance of Precip.
Yesterday
High -- | Low -- °F
Precip. -- in
Pressure 30.06 in
Visibility 1.2 miles
Clouds
Heat Index 83 °F
Dew Point 54 °F
Humidity 35%
Rainfall 0.00 in
Snow Depth Not available.
6:51 AM 5:54 PM
Last Quarter, 46% visible
METAR VANP 200800Z 12005KT 2000 HZ NSC 29/12 Q1018 NOSIG
Pressure 30.06 in
Visibility 1.2 miles
Clouds
Heat Index 83 °F
Dew Point 54 °F
Humidity 35%
Rainfall 0.00 in
Snow Depth Not available.
6:51 AM 5:54 PM
Last Quarter, 46% visible
METAR VANP 200800Z 12005KT 2000 HZ NSC 29/12 Q1018 NOSIG

Get Your Daily Forecast Email!

Thanks for signing up!

Be on the lookout for a verification email in your inbox.

You'll start receiving the daily forecast at 8 AM.

×

10-Day Weather Forecast

No radar image for this location.
×

Almanac

Astronomy

Jan. 20, 2017 Rise Set
Actual Time
Civil Twilight
Nautical Twilight
Astronomical Twilight
Moon
Length of Visible Light
Length of Day
Tomorrow will be .
, % of the Moon is Illuminated

Today's Extremes

Country Highs Country Lows

Community

WunderPhotos

Upload Photos

1,962,540 photos uploaded!

WunderBlog® & News

Nearby

Air Quality

  Air Quality AQ Index Pollutant
Not available.

Snow Depth

Station Depth Elevation

Earthquake Activity

City Distance Mag. Time & Date
Minimum magnitude displayed is 2.5.

Coastal Water Temperatures

Place Temperature

Stations

Nearby Weather Stations

Station Location Temp. Windchill Dew Point Humidity Wind Precip. Elev Updated Type